Latest Coastal Weather Observations for Croker Island Airport

IDD60701

Issued at 8:21 am CST Thursday 19 September 2019 (issued every 10 minutes, with the page automatically refreshed every 10 minutes)

About coastal observations | Map of coastal stations | Coastal observations for NT | Marine services | Other Formats
Station Details ID: 014308 Name: CROKER ISLAND AIRPORT Lat: -11.16 Lon: 132.48 Height: 9.2 m
Data from the previous 72 hours. | See also: Recent months at Croker Island Airport
Date/Time
CST
Wind Sea
Height
m
Swell Vis
km
Cloud Weather Temp
°C
Press
hPa
Rain since
9am
mm
Dir  Spd
kts
Gust
kts
Height
m
Period
s
Dir
19/08:00am ESE 2 3 - - - - - - - 24.5 1015.6 0.0
19/07:30am SE 2 4 - - - - - - - 23.0 1015.5 0.0
19/07:00am SSE 4 5 - - - - - - - 21.9 1015.1 0.0
19/06:30am ESE 3 4 - - - - - - - 20.8 1014.7 0.0
19/06:00am ESE 3 4 - - - - - - - 20.7 1014.1 0.0
19/05:30am E 3 4 - - - - - - - 20.9 1013.8 0.0
19/05:00am E 3 3 - - - - - - - 21.0 1013.7 0.0
19/04:30am ESE 3 3 - - - - - - - 21.2 1013.9 0.0
19/04:00am SSE 3 3 - - - - - - - 21.6 1013.7 0.0
19/03:30am ENE 2 3 - - - - - - - 21.5 1013.5 0.0
19/03:00am ENE 3 3 - - - - - - - 21.5 1013.6 0.0
19/02:30am ENE 3 3 - - - - - - - 21.8 1013.9 0.0
19/02:00am ENE 4 5 - - - - - - - 22.3 1014.1 0.0
19/01:30am E 3 4 - - - - - - - 21.9 1014.3 0.0
19/01:00am ENE 2 3 - - - - - - - 21.9 1014.7 0.0
19/12:30am ENE 2 3 - - - - - - - 22.1 1014.8 0.0
19/12:00am ENE 3 4 - - - - - - - 22.6 1014.9 0.0
 
Date/Time
CST
Wind Sea
Height
m
Swell Vis
km
Cloud Weather Temp
°C
Press
hPa
Rain since
9am
mm
Dir  Spd
kts
Gust
kts
Height
m
Period
s
Dir
18/11:30pm ENE 3 5 - - - - - - - 22.9 1015.1 0.0
18/11:00pm NE 3 5 - - - - - - - 23.4 1015.2 0.0
18/10:30pm ENE 3 5 - - - - - - - 23.4 1015.3 0.0
18/10:00pm ENE 5 7 - - - - - - - 23.6 1015.3 0.0
18/09:30pm ENE 5 7 - - - - - - - 23.7 1015.2 0.0
18/09:00pm ENE 5 9 - - - - - - - 24.0 1015.0 0.0
18/08:30pm ENE 6 8 - - - - - - - 24.0 1014.8 0.0
18/08:00pm ENE 5 7 - - - - - - - 24.2 1014.7 0.0
18/07:30pm ENE 5 7 - - - - - - - 24.4 1014.7 0.0
18/07:00pm ENE 7 11 - - - - - - - 24.9 1014.4 0.0
18/06:30pm ENE 9 15 - - - - - - - 25.4 1014.2 0.0
18/06:00pm ENE 11 16 - - - - - - - 26.1 1014.0 0.0
18/05:30pm ENE 9 15 - - - - - - - 27.2 1014.2 0.0
18/05:00pm ENE 12 17 - - - - - - - 27.4 1013.9 0.0
18/04:30pm ENE 9 14 - - - - - - - 28.2 1013.9 0.0
18/04:00pm E 12 17 - - - - - - - 29.3 1013.9 0.0
18/03:30pm E 12 21 - - - - - - - 29.3 1013.9 0.0
18/03:00pm E 14 20 - - - - - - - 30.2 1014.0 0.0
18/02:30pm E 13 19 - - - - - - - 30.4 1014.3 0.0
18/02:00pm ENE 14 21 - - - - - - - 30.8 1014.7 0.0
18/01:30pm E 13 20 - - - - - - - 31.8 1014.9 0.0
18/01:00pm ENE 12 17 - - - - - - - 31.1 1015.3 0.0
18/12:30pm E 10 16 - - - - - - - 31.4 1015.6 0.0
18/12:00pm E 11 17 - - - - - - - 30.7 1016.1 0.0
18/11:30am ESE 10 15 - - - - - - - 30.1 1016.6 0.0
18/11:00am ESE 9 16 - - - - - - - 29.8 1016.8 0.0
18/10:30am E 8 14 - - - - - - - 29.6 1017.2 0.0
18/10:00am ESE 7 13 - - - - - - - 29.3 1017.6 0.0
18/09:30am ESE 8 12 - - - - - - - 27.9 1017.5 0.0
18/09:00am ESE 7 13 - - - - - - - 27.1 1017.4 0.0
18/08:30am E 9 14 - - - - - - - 26.4 1017.2 0.0
18/08:00am ESE 6 9 - - - - - - - 25.4 1017.0 0.0
18/07:30am ESE 3 5 - - - - - - - 23.6 1016.7 0.0
18/07:00am ENE 3 4 - - - - - - - 22.1 1016.5 0.0
18/06:30am ENE 2 3 - - - - - - - 21.9 1016.1 0.0
18/06:00am ENE 2 3 - - - - - - - 21.9 1015.8 0.0
18/05:30am ENE 3 3 - - - - - - - 22.1 1015.6 0.0
18/05:00am ENE 3 4 - - - - - - - 22.4 1015.2 0.0
18/04:30am ENE 2 3 - - - - - - - 22.1 1015.0 0.0
18/04:00am ENE 2 3 - - - - - - - 22.6 1014.8 0.0
18/03:30am ENE 3 4 - - - - - - - 23.1 1014.8 0.0
18/03:00am ENE 4 6 - - - - - - - 23.5 1014.7 0.0
18/02:30am ENE 4 7 - - - - - - - 23.8 1014.8 0.0
18/02:00am ENE 7 11 - - - - - - - 24.1 1015.1 0.0
18/01:30am ENE 6 7 - - - - - - - 24.2 1015.3 0.0
18/01:00am ENE 7 11 - - - - - - - 24.4 1015.4 0.0
18/12:30am ENE 7 10 - - - - - - - 24.1 1015.5 0.0
18/12:00am ENE 6 9 - - - - - - - 23.9 1015.5 0.0
 
Date/Time
CST
Wind Sea
Height
m
Swell Vis
km
Cloud Weather Temp
°C
Press
hPa
Rain since
9am
mm
Dir  Spd
kts
Gust
kts
Height
m
Period
s
Dir
17/11:30pm ENE 4 6 - - - - - - - 23.8 1015.6 0.0
17/11:00pm NE 4 6 - - - - - - - 23.6 1015.6 0.0
17/10:30pm ENE 4 5 - - - - - - - 23.7 1015.7 0.0
17/10:00pm ENE 4 5 - - - - - - - 23.8 1015.7 0.0
17/09:30pm NE 4 6 - - - - - - - 24.0 1015.6 0.0
17/09:00pm ENE 4 6 - - - - - - - 24.1 1015.3 0.0
17/08:30pm ENE 4 8 - - - - - - - 24.1 1015.1 0.0
17/08:00pm ENE 5 7 - - - - - - - 24.3 1014.8 0.0
17/07:30pm ENE 6 8 - - - - - - - 24.5 1014.5 0.0
17/07:00pm ENE 8 11 - - - - - - - 24.7 1014.4 0.0
17/06:30pm ENE 9 13 - - - - - - - 25.2 1014.2 0.0
17/06:00pm ENE 9 13 - - - - - - - 25.9 1014.1 0.0
17/05:30pm E 10 13 - - - - - - - 26.6 1013.9 0.0
17/05:00pm E 11 18 - - - - - - - 26.9 1013.8 0.0
17/04:30pm E 11 18 - - - - - - - 27.3 1013.7 0.0
17/04:00pm E 12 17 - - - - - - - 27.7 1013.7 0.0
17/03:30pm ENE 13 16 - - - - - - - 28.3 1013.6 0.0
17/03:00pm ENE 12 19 - - - - - - - 28.2 1014.0 0.0
17/02:30pm E 11 17 - - - - - - - 28.6 1014.3 0.0
17/02:00pm E 11 19 - - - - - - - 28.8 1014.7 0.0
17/01:30pm E 10 17 - - - - - - - 28.8 1014.9 0.0
17/01:00pm E 10 15 - - - - - - - 28.8 1015.1 0.0
17/12:30pm E 9 14 - - - - - - - 28.3 1015.6 0.0
17/12:00pm E 11 16 - - - - - - - 28.4 1016.0 0.0
17/11:30am E 11 17 - - - - - - - 28.2 1016.3 0.0
17/11:00am E 11 17 - - - - - - - 28.3 1016.6 0.0
17/10:30am E 11 18 - - - - - - - 27.4 1016.9 0.0
17/10:00am ESE 12 18 - - - - - - - 27.4 1017.0 0.0
17/09:30am E 12 17 - - - - - - - 27.2 1017.0 0.0
17/09:00am ESE 11 16 - - - - - - - 26.2 1016.8 0.0
17/08:30am E 11 16 - - - - - - - 26.1 1016.7 0.0
17/08:00am E 8 14 - - - - - - - 25.5 1016.3 0.0
17/07:30am E 7 9 - - - - - - - 24.3 1016.1 0.0
17/07:00am E 5 7 - - - - - - - 23.1 1015.6 0.0
17/06:30am E 6 9 - - - - - - - 23.0 1015.1 0.0
17/06:00am E 6 9 - - - - - - - 23.1 1014.7 0.0
17/05:30am E 7 10 - - - - - - - 23.3 1014.4 0.0
17/05:00am E 6 10 - - - - - - - 23.3 1014.1 0.0
17/04:30am E 6 9 - - - - - - - 23.2 1013.8 0.0
17/04:00am E 5 9 - - - - - - - 23.3 1013.5 0.0
17/03:30am E 5 8 - - - - - - - 23.4 1013.3 0.0
17/03:00am E 5 7 - - - - - - - 23.5 1013.4 0.0
17/02:30am E 6 9 - - - - - - - 23.7 1013.5 0.0
17/02:00am E 6 9 - - - - - - - 23.9 1013.6 0.0
17/01:30am ENE 8 11 - - - - - - - 24.0 1013.8 0.0
17/01:00am ENE 6 10 - - - - - - - 24.0 1014.0 0.0
17/12:30am ENE 6 9 - - - - - - - 23.9 1014.1 0.0
17/12:00am ENE 7 11 - - - - - - - 24.0 1014.3 0.0
 
Date/Time
CST
Wind Sea
Height
m
Swell Vis
km
Cloud Weather Temp
°C
Press
hPa
Rain since
9am
mm
Dir  Spd
kts
Gust
kts
Height
m
Period
s
Dir
16/11:30pm ENE 7 11 - - - - - - - 23.7 1014.3 0.0
16/11:00pm ENE 6 9 - - - - - - - 23.7 1014.4 0.0
16/10:30pm ENE 5 8 - - - - - - - 23.5 1014.4 0.0
16/10:00pm ENE 7 9 - - - - - - - 23.8 1014.5 0.0
16/09:30pm ENE 7 9 - - - - - - - 23.8 1014.5 0.0
16/09:00pm ENE 8 11 - - - - - - - 24.0 1014.5 0.0
16/08:30pm ENE 8 12 - - - - - - - 24.1 1014.1 0.0
16/08:00pm ENE 8 13 - - - - - - - 24.3 1014.1 0.0
16/07:30pm ENE 8 14 - - - - - - - 24.4 1014.1 0.0
16/07:00pm ENE 8 12 - - - - - - - 24.5 1013.8 0.0
16/06:30pm ENE 8 13 - - - - - - - 24.9 1013.5 0.0
16/06:00pm ENE 9 13 - - - - - - - 25.4 1013.4 0.0
16/05:30pm ENE 9 14 - - - - - - - 26.1 1013.3 0.0
16/05:00pm NE 10 15 - - - - - - - 26.6 1013.2 0.0
16/04:30pm ENE 9 14 - - - - - - - 27.4 1013.2 0.0
16/04:00pm ENE 10 16 - - - - - - - 27.7 1013.3 0.0
16/03:30pm ENE 11 17 - - - - - - - 27.6 1013.4 0.0
16/03:00pm E 11 15 - - - - - - - 28.2 1013.6 0.0
16/02:30pm E 10 18 - - - - - - - 28.7 1013.9 0.0
16/02:00pm ENE 12 19 - - - - - - - 28.5 1014.1 0.0
16/01:30pm ENE 10 18 - - - - - - - 28.9 1014.4 0.0
16/01:00pm ENE 12 18 - - - - - - - 29.0 1014.6 0.0
16/12:30pm E 11 16 - - - - - - - 28.4 1014.9 0.0
16/12:00pm E 12 17 - - - - - - - 28.1 1015.3 0.0
16/11:30am E 11 18 - - - - - - - 27.6 1015.7 0.0
16/11:00am ESE 11 18 - - - - - - - 27.7 1016.1 0.0
16/10:30am ENE 10 15 - - - - - - - 28.1 1016.3 0.0
16/10:00am E 11 17 - - - - - - - 27.5 1016.4 0.0
16/09:30am E 11 17 - - - - - - - 26.2 1016.3 0.0
16/09:00am E 11 18 - - - - - - - 26.0 1016.1 0.0
16/08:30am E 11 18 - - - - - - - 26.0 1016.2 0.0

Other formats

Comma delimited format used in spreadsheet applications
http://www.bom.gov.au/fwo/IDD60701/IDD60701.94108.axf

JavaScript Object Notation format (JSON) in row-major order
http://www.bom.gov.au/fwo/IDD60701/IDD60701.94108.json

Data quality

Most of these data are generated automatically and are frequently updated. Quality checks on data are not normally performed. It is possible for incorrect values to appear. Refer to information at About Latest Weather Observations and please check the disclaimer before using these data.